sensor_id;sensor_type;location;lat;lon;timestamp;P1;durP1;ratioP1;P2;durP2;ratioP2
77705;SDS011;66874;45.274;5.880;2023-05-07T00:01:41;5.00;;;2.50;;
77705;SDS011;66874;45.274;5.880;2023-05-07T00:04:06;7.07;;;2.95;;
77705;SDS011;66874;45.274;5.880;2023-05-07T00:06:32;4.95;;;3.03;;
77705;SDS011;66874;45.274;5.880;2023-05-07T00:08:58;4.35;;;2.83;;
77705;SDS011;66874;45.274;5.880;2023-05-07T00:11:24;3.67;;;2.70;;
77705;SDS011;66874;45.274;5.880;2023-05-07T00:13:50;6.43;;;3.17;;
77705;SDS011;66874;45.274;5.880;2023-05-07T00:16:16;7.78;;;2.72;;
77705;SDS011;66874;45.274;5.880;2023-05-07T00:18:41;5.20;;;2.75;;
77705;SDS011;66874;45.274;5.880;2023-05-07T00:21:07;4.45;;;2.60;;
77705;SDS011;66874;45.274;5.880;2023-05-07T00:23:32;6.28;;;2.38;;
77705;SDS011;66874;45.274;5.880;2023-05-07T00:25:58;5.53;;;2.90;;
77705;SDS011;66874;45.274;5.880;2023-05-07T00:28:23;4.15;;;3.08;;
77705;SDS011;66874;45.274;5.880;2023-05-07T00:30:48;5.05;;;2.97;;
77705;SDS011;66874;45.274;5.880;2023-05-07T00:33:14;5.53;;;3.17;;
77705;SDS011;66874;45.274;5.880;2023-05-07T00:35:39;5.30;;;3.15;;
77705;SDS011;66874;45.274;5.880;2023-05-07T00:38:05;6.70;;;2.83;;
77705;SDS011;66874;45.274;5.880;2023-05-07T00:40:30;7.63;;;3.35;;
77705;SDS011;66874;45.274;5.880;2023-05-07T00:42:55;4.82;;;3.17;;
77705;SDS011;66874;45.274;5.880;2023-05-07T00:45:23;6.20;;;3.15;;
77705;SDS011;66874;45.274;5.880;2023-05-07T00:47:53;6.65;;;3.25;;
77705;SDS011;66874;45.274;5.880;2023-05-07T00:50:22;6.47;;;2.92;;
77705;SDS011;66874;45.274;5.880;2023-05-07T00:52:48;4.35;;;2.50;;
77705;SDS011;66874;45.274;5.880;2023-05-07T00:55:13;3.92;;;2.25;;
77705;SDS011;66874;45.274;5.880;2023-05-07T00:57:40;3.13;;;2.20;;
77705;SDS011;66874;45.274;5.880;2023-05-07T01:00:06;5.90;;;2.03;;
77705;SDS011;66874;45.274;5.880;2023-05-07T01:05:00;5.47;;;1.90;;
77705;SDS011;66874;45.274;5.880;2023-05-07T01:07:26;5.57;;;2.10;;
77705;SDS011;66874;45.274;5.880;2023-05-07T01:09:52;9.40;;;2.45;;
77705;SDS011;66874;45.274;5.880;2023-05-07T01:12:18;3.58;;;1.67;;
77705;SDS011;66874;45.274;5.880;2023-05-07T01:14:44;8.18;;;1.58;;
77705;SDS011;66874;45.274;5.880;2023-05-07T01:17:10;7.97;;;1.85;;
77705;SDS011;66874;45.274;5.880;2023-05-07T01:19:35;2.10;;;1.55;;
77705;SDS011;66874;45.274;5.880;2023-05-07T01:22:03;3.28;;;1.70;;
77705;SDS011;66874;45.274;5.880;2023-05-07T01:24:32;2.60;;;1.40;;
77705;SDS011;66874;45.274;5.880;2023-05-07T01:26:58;2.72;;;1.80;;
77705;SDS011;66874;45.274;5.880;2023-05-07T01:29:24;5.95;;;1.67;;
77705;SDS011;66874;45.274;5.880;2023-05-07T01:31:49;3.80;;;1.35;;
77705;SDS011;66874;45.274;5.880;2023-05-07T01:34:16;3.95;;;1.63;;
77705;SDS011;66874;45.274;5.880;2023-05-07T01:36:43;2.90;;;1.50;;
77705;SDS011;66874;45.274;5.880;2023-05-07T01:39:09;1.90;;;1.45;;
77705;SDS011;66874;45.274;5.880;2023-05-07T01:41:35;4.47;;;1.20;;
77705;SDS011;66874;45.274;5.880;2023-05-07T01:44:01;2.00;;;1.48;;
77705;SDS011;66874;45.274;5.880;2023-05-07T01:46:28;4.45;;;1.80;;
77705;SDS011;66874;45.274;5.880;2023-05-07T01:48:54;3.08;;;1.60;;
77705;SDS011;66874;45.274;5.880;2023-05-07T01:51:20;4.22;;;1.65;;
77705;SDS011;66874;45.274;5.880;2023-05-07T01:53:47;2.30;;;1.50;;
77705;SDS011;66874;45.274;5.880;2023-05-07T01:56:16;5.07;;;2.05;;
77705;SDS011;66874;45.274;5.880;2023-05-07T01:58:42;4.10;;;1.85;;
77705;SDS011;66874;45.274;5.880;2023-05-07T02:01:09;2.13;;;1.73;;
77705;SDS011;66874;45.274;5.880;2023-05-07T02:03:34;2.05;;;1.30;;
77705;SDS011;66874;45.274;5.880;2023-05-07T02:06:00;3.70;;;1.60;;
77705;SDS011;66874;45.274;5.880;2023-05-07T02:08:26;5.22;;;1.60;;
77705;SDS011;66874;45.274;5.880;2023-05-07T02:10:51;4.80;;;1.50;;
77705;SDS011;66874;45.274;5.880;2023-05-07T02:13:18;4.90;;;2.35;;
77705;SDS011;66874;45.274;5.880;2023-05-07T02:15:45;1.58;;;1.38;;
77705;SDS011;66874;45.274;5.880;2023-05-07T02:18:14;2.70;;;1.65;;
77705;SDS011;66874;45.274;5.880;2023-05-07T02:20:41;5.93;;;1.55;;
77705;SDS011;66874;45.274;5.880;2023-05-07T02:23:06;3.80;;;1.50;;
77705;SDS011;66874;45.274;5.880;2023-05-07T02:25:31;3.42;;;1.52;;
77705;SDS011;66874;45.274;5.880;2023-05-07T02:27:57;2.75;;;1.40;;
77705;SDS011;66874;45.274;5.880;2023-05-07T02:30:22;2.42;;;1.48;;
77705;SDS011;66874;45.274;5.880;2023-05-07T02:32:48;2.38;;;1.60;;
77705;SDS011;66874;45.274;5.880;2023-05-07T02:35:14;6.22;;;1.52;;
77705;SDS011;66874;45.274;5.880;2023-05-07T02:37:39;3.67;;;1.80;;
77705;SDS011;66874;45.274;5.880;2023-05-07T02:40:05;1.45;;;1.35;;
77705;SDS011;66874;45.274;5.880;2023-05-07T02:42:31;1.73;;;1.63;;
77705;SDS011;66874;45.274;5.880;2023-05-07T02:44:56;2.95;;;1.85;;
77705;SDS011;66874;45.274;5.880;2023-05-07T02:47:21;3.40;;;1.48;;
77705;SDS011;66874;45.274;5.880;2023-05-07T02:49:47;2.22;;;1.52;;
77705;SDS011;66874;45.274;5.880;2023-05-07T02:52:12;2.15;;;1.58;;
77705;SDS011;66874;45.274;5.880;2023-05-07T02:54:38;6.97;;;1.80;;
77705;SDS011;66874;45.274;5.880;2023-05-07T02:57:03;4.65;;;1.60;;
77705;SDS011;66874;45.274;5.880;2023-05-07T02:59:29;2.20;;;1.38;;
77705;SDS011;66874;45.274;5.880;2023-05-07T03:01:54;3.38;;;1.52;;
77705;SDS011;66874;45.274;5.880;2023-05-07T03:04:19;2.20;;;1.90;;
77705;SDS011;66874;45.274;5.880;2023-05-07T03:06:45;4.97;;;1.98;;
77705;SDS011;66874;45.274;5.880;2023-05-07T03:09:10;3.20;;;1.73;;
77705;SDS011;66874;45.274;5.880;2023-05-07T03:11:36;6.38;;;2.63;;
77705;SDS011;66874;45.274;5.880;2023-05-07T03:14:01;3.28;;;1.70;;
77705;SDS011;66874;45.274;5.880;2023-05-07T03:16:27;3.10;;;2.22;;
77705;SDS011;66874;45.274;5.880;2023-05-07T03:18:53;2.05;;;1.60;;
77705;SDS011;66874;45.274;5.880;2023-05-07T03:21:18;4.38;;;2.03;;
77705;SDS011;66874;45.274;5.880;2023-05-07T03:23:44;1.98;;;1.73;;
77705;SDS011;66874;45.274;5.880;2023-05-07T03:26:09;3.53;;;1.88;;
77705;SDS011;66874;45.274;5.880;2023-05-07T03:28:35;4.07;;;1.92;;
77705;SDS011;66874;45.274;5.880;2023-05-07T03:31:00;5.00;;;1.80;;
77705;SDS011;66874;45.274;5.880;2023-05-07T03:33:26;2.38;;;1.85;;
77705;SDS011;66874;45.274;5.880;2023-05-07T03:35:52;3.45;;;1.80;;
77705;SDS011;66874;45.274;5.880;2023-05-07T03:38:18;6.38;;;1.80;;
77705;SDS011;66874;45.274;5.880;2023-05-07T03:40:43;2.15;;;1.45;;
77705;SDS011;66874;45.274;5.880;2023-05-07T03:43:08;4.82;;;1.90;;
77705;SDS011;66874;45.274;5.880;2023-05-07T03:45:34;7.40;;;2.58;;
77705;SDS011;66874;45.274;5.880;2023-05-07T03:48:00;3.05;;;1.90;;
77705;SDS011;66874;45.274;5.880;2023-05-07T03:50:25;2.45;;;1.75;;
77705;SDS011;66874;45.274;5.880;2023-05-07T03:52:51;5.88;;;1.73;;
77705;SDS011;66874;45.274;5.880;2023-05-07T03:55:16;4.10;;;2.22;;
77705;SDS011;66874;45.274;5.880;2023-05-07T03:57:42;3.67;;;1.92;;
77705;SDS011;66874;45.274;5.880;2023-05-07T04:00:07;2.85;;;2.08;;
77705;SDS011;66874;45.274;5.880;2023-05-07T04:02:33;3.25;;;2.58;;
77705;SDS011;66874;45.274;5.880;2023-05-07T04:04:58;2.90;;;2.08;;
77705;SDS011;66874;45.274;5.880;2023-05-07T04:07:24;3.13;;;2.55;;
77705;SDS011;66874;45.274;5.880;2023-05-07T04:09:49;4.03;;;2.28;;
77705;SDS011;66874;45.274;5.880;2023-05-07T04:12:14;4.63;;;2.47;;
77705;SDS011;66874;45.274;5.880;2023-05-07T04:14:40;3.72;;;2.40;;
77705;SDS011;66874;45.274;5.880;2023-05-07T04:17:05;3.30;;;2.30;;
77705;SDS011;66874;45.274;5.880;2023-05-07T04:19:33;8.10;;;2.58;;
77705;SDS011;66874;45.274;5.880;2023-05-07T04:21:58;3.23;;;2.30;;
77705;SDS011;66874;45.274;5.880;2023-05-07T04:24:24;4.65;;;2.33;;
77705;SDS011;66874;45.274;5.880;2023-05-07T04:26:49;2.25;;;1.85;;
77705;SDS011;66874;45.274;5.880;2023-05-07T04:29:16;6.50;;;1.92;;
77705;SDS011;66874;45.274;5.880;2023-05-07T04:31:41;6.60;;;2.53;;
77705;SDS011;66874;45.274;5.880;2023-05-07T04:34:09;4.18;;;2.45;;
77705;SDS011;66874;45.274;5.880;2023-05-07T04:36:36;4.15;;;2.03;;
77705;SDS011;66874;45.274;5.880;2023-05-07T04:39:03;5.57;;;1.85;;
77705;SDS011;66874;45.274;5.880;2023-05-07T04:41:29;2.67;;;1.90;;
77705;SDS011;66874;45.274;5.880;2023-05-07T04:43:54;3.72;;;1.83;;
77705;SDS011;66874;45.274;5.880;2023-05-07T04:46:20;3.33;;;1.85;;
77705;SDS011;66874;45.274;5.880;2023-05-07T04:48:45;5.35;;;1.90;;
77705;SDS011;66874;45.274;5.880;2023-05-07T04:51:11;2.03;;;1.70;;
77705;SDS011;66874;45.274;5.880;2023-05-07T04:53:37;3.35;;;2.40;;
77705;SDS011;66874;45.274;5.880;2023-05-07T04:56:02;3.83;;;1.95;;
77705;SDS011;66874;45.274;5.880;2023-05-07T04:58:28;3.95;;;2.17;;
77705;SDS011;66874;45.274;5.880;2023-05-07T05:00:56;2.53;;;1.98;;
77705;SDS011;66874;45.274;5.880;2023-05-07T05:03:22;5.95;;;1.90;;
77705;SDS011;66874;45.274;5.880;2023-05-07T05:05:51;4.93;;;1.95;;
77705;SDS011;66874;45.274;5.880;2023-05-07T05:08:17;4.53;;;2.33;;
77705;SDS011;66874;45.274;5.880;2023-05-07T05:10:43;5.70;;;2.13;;
77705;SDS011;66874;45.274;5.880;2023-05-07T05:13:08;4.63;;;2.42;;
77705;SDS011;66874;45.274;5.880;2023-05-07T05:15:35;3.65;;;2.10;;
77705;SDS011;66874;45.274;5.880;2023-05-07T05:18:00;2.65;;;2.33;;
77705;SDS011;66874;45.274;5.880;2023-05-07T05:20:26;3.92;;;3.25;;
77705;SDS011;66874;45.274;5.880;2023-05-07T05:22:51;5.28;;;2.30;;
77705;SDS011;66874;45.274;5.880;2023-05-07T05:25:17;4.65;;;2.47;;
77705;SDS011;66874;45.274;5.880;2023-05-07T05:27:42;4.63;;;2.83;;
77705;SDS011;66874;45.274;5.880;2023-05-07T05:30:08;5.43;;;3.20;;
77705;SDS011;66874;45.274;5.880;2023-05-07T05:32:33;5.22;;;2.30;;
77705;SDS011;66874;45.274;5.880;2023-05-07T05:34:59;4.75;;;2.50;;
77705;SDS011;66874;45.274;5.880;2023-05-07T05:37:24;8.02;;;2.40;;
77705;SDS011;66874;45.274;5.880;2023-05-07T05:39:50;4.00;;;2.90;;
77705;SDS011;66874;45.274;5.880;2023-05-07T05:42:15;7.70;;;2.38;;
77705;SDS011;66874;45.274;5.880;2023-05-07T05:44:41;4.20;;;2.35;;
77705;SDS011;66874;45.274;5.880;2023-05-07T05:47:06;4.22;;;2.60;;
77705;SDS011;66874;45.274;5.880;2023-05-07T05:49:31;6.57;;;2.80;;
77705;SDS011;66874;45.274;5.880;2023-05-07T05:51:57;5.88;;;2.33;;
77705;SDS011;66874;45.274;5.880;2023-05-07T05:54:22;3.80;;;2.22;;
77705;SDS011;66874;45.274;5.880;2023-05-07T05:56:48;5.43;;;2.70;;
77705;SDS011;66874;45.274;5.880;2023-05-07T05:59:14;4.38;;;2.35;;
77705;SDS011;66874;45.274;5.880;2023-05-07T06:01:39;3.67;;;1.92;;
77705;SDS011;66874;45.274;5.880;2023-05-07T06:04:05;7.13;;;2.40;;
77705;SDS011;66874;45.274;5.880;2023-05-07T06:06:31;7.05;;;2.50;;
77705;SDS011;66874;45.274;5.880;2023-05-07T06:08:56;6.03;;;2.35;;
77705;SDS011;66874;45.274;5.880;2023-05-07T06:11:22;5.63;;;2.33;;
77705;SDS011;66874;45.274;5.880;2023-05-07T06:13:47;3.63;;;2.40;;
77705;SDS011;66874;45.274;5.880;2023-05-07T06:16:13;9.82;;;3.20;;
77705;SDS011;66874;45.274;5.880;2023-05-07T06:18:40;5.07;;;2.92;;
77705;SDS011;66874;45.274;5.880;2023-05-07T06:21:05;5.50;;;3.13;;
77705;SDS011;66874;45.274;5.880;2023-05-07T06:23:31;7.72;;;3.38;;
77705;SDS011;66874;45.274;5.880;2023-05-07T06:25:56;5.95;;;3.30;;
77705;SDS011;66874;45.274;5.880;2023-05-07T06:28:21;7.70;;;3.70;;
77705;SDS011;66874;45.274;5.880;2023-05-07T06:30:47;6.38;;;3.88;;
77705;SDS011;66874;45.274;5.880;2023-05-07T06:33:14;5.07;;;3.00;;
77705;SDS011;66874;45.274;5.880;2023-05-07T06:35:40;5.30;;;3.30;;
77705;SDS011;66874;45.274;5.880;2023-05-07T06:38:05;3.58;;;2.80;;
77705;SDS011;66874;45.274;5.880;2023-05-07T06:40:31;7.18;;;3.28;;
77705;SDS011;66874;45.274;5.880;2023-05-07T06:42:56;3.90;;;2.95;;
77705;SDS011;66874;45.274;5.880;2023-05-07T06:45:22;2.95;;;2.65;;
77705;SDS011;66874;45.274;5.880;2023-05-07T06:47:47;5.38;;;2.92;;
77705;SDS011;66874;45.274;5.880;2023-05-07T06:50:12;6.72;;;3.00;;
77705;SDS011;66874;45.274;5.880;2023-05-07T06:52:38;3.60;;;2.80;;
77705;SDS011;66874;45.274;5.880;2023-05-07T06:55:03;5.13;;;3.42;;
77705;SDS011;66874;45.274;5.880;2023-05-07T06:57:29;4.95;;;2.78;;
77705;SDS011;66874;45.274;5.880;2023-05-07T06:59:55;4.35;;;2.85;;
77705;SDS011;66874;45.274;5.880;2023-05-07T07:02:20;11.90;;;3.00;;
77705;SDS011;66874;45.274;5.880;2023-05-07T07:04:46;3.28;;;2.40;;
77705;SDS011;66874;45.274;5.880;2023-05-07T07:07:11;5.63;;;3.05;;
77705;SDS011;66874;45.274;5.880;2023-05-07T07:09:37;5.63;;;2.42;;
77705;SDS011;66874;45.274;5.880;2023-05-07T07:12:02;5.72;;;2.60;;
77705;SDS011;66874;45.274;5.880;2023-05-07T07:14:28;3.53;;;2.20;;
77705;SDS011;66874;45.274;5.880;2023-05-07T07:16:53;3.30;;;2.30;;
77705;SDS011;66874;45.274;5.880;2023-05-07T07:19:18;3.13;;;2.60;;
77705;SDS011;66874;45.274;5.880;2023-05-07T07:21:45;3.65;;;2.10;;
77705;SDS011;66874;45.274;5.880;2023-05-07T07:24:10;3.08;;;1.70;;
77705;SDS011;66874;45.274;5.880;2023-05-07T07:26:36;4.43;;;2.40;;
77705;SDS011;66874;45.274;5.880;2023-05-07T07:29:01;4.50;;;2.25;;
77705;SDS011;66874;45.274;5.880;2023-05-07T07:31:26;7.47;;;2.20;;
77705;SDS011;66874;45.274;5.880;2023-05-07T07:33:52;4.07;;;2.17;;
77705;SDS011;66874;45.274;5.880;2023-05-07T07:36:17;3.45;;;2.28;;
77705;SDS011;66874;45.274;5.880;2023-05-07T07:38:43;6.68;;;2.13;;
77705;SDS011;66874;45.274;5.880;2023-05-07T07:41:08;3.67;;;2.08;;
77705;SDS011;66874;45.274;5.880;2023-05-07T07:43:34;3.88;;;2.15;;
77705;SDS011;66874;45.274;5.880;2023-05-07T07:46:00;3.38;;;2.03;;
77705;SDS011;66874;45.274;5.880;2023-05-07T07:48:26;9.90;;;2.95;;
77705;SDS011;66874;45.274;5.880;2023-05-07T07:50:51;5.15;;;2.47;;
77705;SDS011;66874;45.274;5.880;2023-05-07T07:53:17;3.10;;;2.00;;
77705;SDS011;66874;45.274;5.880;2023-05-07T07:55:43;6.07;;;2.58;;
77705;SDS011;66874;45.274;5.880;2023-05-07T07:58:08;5.63;;;2.83;;
77705;SDS011;66874;45.274;5.880;2023-05-07T08:00:33;6.63;;;2.67;;
77705;SDS011;66874;45.274;5.880;2023-05-07T08:02:59;4.18;;;2.13;;
77705;SDS011;66874;45.274;5.880;2023-05-07T08:05:25;5.15;;;2.20;;
77705;SDS011;66874;45.274;5.880;2023-05-07T08:07:50;3.40;;;2.17;;
77705;SDS011;66874;45.274;5.880;2023-05-07T08:10:17;4.00;;;2.10;;
77705;SDS011;66874;45.274;5.880;2023-05-07T08:12:47;4.63;;;2.40;;
77705;SDS011;66874;45.274;5.880;2023-05-07T08:15:13;5.97;;;2.80;;
77705;SDS011;66874;45.274;5.880;2023-05-07T08:17:39;6.80;;;3.38;;
77705;SDS011;66874;45.274;5.880;2023-05-07T08:20:04;7.80;;;2.80;;
77705;SDS011;66874;45.274;5.880;2023-05-07T08:22:30;9.38;;;2.67;;
77705;SDS011;66874;45.274;5.880;2023-05-07T08:24:55;5.07;;;2.78;;
77705;SDS011;66874;45.274;5.880;2023-05-07T08:27:21;3.30;;;2.40;;
77705;SDS011;66874;45.274;5.880;2023-05-07T08:29:46;4.45;;;2.60;;
77705;SDS011;66874;45.274;5.880;2023-05-07T08:32:13;7.53;;;2.53;;
77705;SDS011;66874;45.274;5.880;2023-05-07T08:34:38;6.20;;;2.78;;
77705;SDS011;66874;45.274;5.880;2023-05-07T08:37:04;6.90;;;2.60;;
77705;SDS011;66874;45.274;5.880;2023-05-07T08:39:29;3.25;;;2.40;;
77705;SDS011;66874;45.274;5.880;2023-05-07T08:41:55;6.93;;;2.38;;
77705;SDS011;66874;45.274;5.880;2023-05-07T08:44:23;2.70;;;2.28;;
77705;SDS011;66874;45.274;5.880;2023-05-07T08:46:52;3.40;;;2.08;;
77705;SDS011;66874;45.274;5.880;2023-05-07T08:49:19;5.30;;;2.50;;
77705;SDS011;66874;45.274;5.880;2023-05-07T08:51:45;3.13;;;2.08;;
77705;SDS011;66874;45.274;5.880;2023-05-07T08:54:11;4.13;;;2.10;;
77705;SDS011;66874;45.274;5.880;2023-05-07T08:56:37;5.95;;;2.13;;
77705;SDS011;66874;45.274;5.880;2023-05-07T08:59:04;4.30;;;2.13;;
77705;SDS011;66874;45.274;5.880;2023-05-07T09:01:30;6.00;;;2.00;;
77705;SDS011;66874;45.274;5.880;2023-05-07T09:03:55;3.03;;;2.50;;
77705;SDS011;66874;45.274;5.880;2023-05-07T09:06:21;7.90;;;2.08;;
77705;SDS011;66874;45.274;5.880;2023-05-07T09:08:50;7.38;;;2.38;;
77705;SDS011;66874;45.274;5.880;2023-05-07T09:11:19;3.10;;;2.00;;
77705;SDS011;66874;45.274;5.880;2023-05-07T09:13:48;5.82;;;2.15;;
77705;SDS011;66874;45.274;5.880;2023-05-07T09:16:15;3.92;;;1.92;;
77705;SDS011;66874;45.274;5.880;2023-05-07T09:18:41;4.05;;;1.88;;
77705;SDS011;66874;45.274;5.880;2023-05-07T09:21:11;3.00;;;2.10;;
77705;SDS011;66874;45.274;5.880;2023-05-07T09:23:39;4.30;;;2.25;;
77705;SDS011;66874;45.274;5.880;2023-05-07T09:26:05;4.53;;;2.83;;
77705;SDS011;66874;45.274;5.880;2023-05-07T09:28:37;4.13;;;2.58;;
77705;SDS011;66874;45.274;5.880;2023-05-07T09:31:05;3.05;;;2.47;;
77705;SDS011;66874;45.274;5.880;2023-05-07T09:33:30;4.07;;;2.78;;
77705;SDS011;66874;45.274;5.880;2023-05-07T09:35:55;4.07;;;2.72;;
77705;SDS011;66874;45.274;5.880;2023-05-07T09:38:21;4.65;;;2.80;;
77705;SDS011;66874;45.274;5.880;2023-05-07T09:40:47;6.07;;;3.15;;
77705;SDS011;66874;45.274;5.880;2023-05-07T09:43:13;4.93;;;3.38;;
77705;SDS011;66874;45.274;5.880;2023-05-07T09:45:39;3.40;;;2.58;;
77705;SDS011;66874;45.274;5.880;2023-05-07T09:48:05;3.33;;;2.60;;
77705;SDS011;66874;45.274;5.880;2023-05-07T09:50:35;6.32;;;2.78;;
77705;SDS011;66874;45.274;5.880;2023-05-07T09:53:05;5.18;;;2.90;;
77705;SDS011;66874;45.274;5.880;2023-05-07T09:55:34;5.90;;;2.88;;
77705;SDS011;66874;45.274;5.880;2023-05-07T09:58:01;7.82;;;3.10;;
77705;SDS011;66874;45.274;5.880;2023-05-07T10:00:28;4.15;;;2.60;;
77705;SDS011;66874;45.274;5.880;2023-05-07T10:02:53;7.00;;;3.40;;
77705;SDS011;66874;45.274;5.880;2023-05-07T10:05:22;8.45;;;3.42;;
77705;SDS011;66874;45.274;5.880;2023-05-07T10:07:48;5.00;;;2.83;;
77705;SDS011;66874;45.274;5.880;2023-05-07T10:10:15;9.27;;;3.80;;
77705;SDS011;66874;45.274;5.880;2023-05-07T10:12:42;8.00;;;3.22;;
77705;SDS011;66874;45.274;5.880;2023-05-07T10:15:08;5.88;;;3.78;;
77705;SDS011;66874;45.274;5.880;2023-05-07T10:17:35;5.57;;;3.38;;
77705;SDS011;66874;45.274;5.880;2023-05-07T10:20:02;6.05;;;3.08;;
77705;SDS011;66874;45.274;5.880;2023-05-07T10:22:30;4.78;;;3.22;;
77705;SDS011;66874;45.274;5.880;2023-05-07T10:25:02;8.50;;;3.50;;
77705;SDS011;66874;45.274;5.880;2023-05-07T10:27:28;4.65;;;2.67;;
77705;SDS011;66874;45.274;5.880;2023-05-07T10:35:19;5.32;;;3.17;;
77705;SDS011;66874;45.274;5.880;2023-05-07T10:37:48;5.72;;;4.63;;
77705;SDS011;66874;45.274;5.880;2023-05-07T10:40:14;5.97;;;4.43;;
77705;SDS011;66874;45.274;5.880;2023-05-07T10:42:52;6.97;;;3.85;;
77705;SDS011;66874;45.274;5.880;2023-05-07T10:45:19;8.88;;;4.05;;
77705;SDS011;66874;45.274;5.880;2023-05-07T10:50:34;4.72;;;3.88;;
77705;SDS011;66874;45.274;5.880;2023-05-07T11:00:47;11.60;;;4.10;;
77705;SDS011;66874;45.274;5.880;2023-05-07T11:03:13;4.82;;;3.90;;
77705;SDS011;66874;45.274;5.880;2023-05-07T11:05:40;6.28;;;3.78;;
77705;SDS011;66874;45.274;5.880;2023-05-07T11:08:07;6.32;;;3.92;;
77705;SDS011;66874;45.274;5.880;2023-05-07T11:13:14;3.72;;;2.90;;
77705;SDS011;66874;45.274;5.880;2023-05-07T11:15:41;5.53;;;3.35;;
77705;SDS011;66874;45.274;5.880;2023-05-07T11:18:09;6.93;;;3.58;;
77705;SDS011;66874;45.274;5.880;2023-05-07T11:26:09;10.93;;;3.53;;
77705;SDS011;66874;45.274;5.880;2023-05-07T11:28:40;4.57;;;3.38;;
77705;SDS011;66874;45.274;5.880;2023-05-07T11:31:07;5.68;;;3.08;;
77705;SDS011;66874;45.274;5.880;2023-05-07T11:33:33;4.35;;;2.45;;
77705;SDS011;66874;45.274;5.880;2023-05-07T11:35:59;4.32;;;2.80;;
77705;SDS011;66874;45.274;5.880;2023-05-07T11:38:25;3.43;;;2.47;;
77705;SDS011;66874;45.274;5.880;2023-05-07T11:41:00;4.05;;;2.28;;
77705;SDS011;66874;45.274;5.880;2023-05-07T11:43:26;3.40;;;2.47;;
77705;SDS011;66874;45.274;5.880;2023-05-07T11:45:52;4.18;;;2.50;;
77705;SDS011;66874;45.274;5.880;2023-05-07T11:48:18;6.63;;;3.72;;
77705;SDS011;66874;45.274;5.880;2023-05-07T11:50:52;4.15;;;2.53;;
77705;SDS011;66874;45.274;5.880;2023-05-07T11:53:26;3.47;;;2.55;;
77705;SDS011;66874;45.274;5.880;2023-05-07T11:55:53;3.25;;;2.83;;
77705;SDS011;66874;45.274;5.880;2023-05-07T11:58:20;7.57;;;4.55;;
77705;SDS011;66874;45.274;5.880;2023-05-07T12:00:51;8.43;;;4.10;;
77705;SDS011;66874;45.274;5.880;2023-05-07T12:03:17;5.38;;;3.90;;
77705;SDS011;66874;45.274;5.880;2023-05-07T12:05:46;5.80;;;4.28;;
77705;SDS011;66874;45.274;5.880;2023-05-07T12:08:15;5.05;;;3.65;;
77705;SDS011;66874;45.274;5.880;2023-05-07T12:10:45;5.45;;;3.97;;
77705;SDS011;66874;45.274;5.880;2023-05-07T12:13:19;3.33;;;2.60;;
77705;SDS011;66874;45.274;5.880;2023-05-07T12:15:52;3.22;;;2.78;;
77705;SDS011;66874;45.274;5.880;2023-05-07T12:18:18;4.75;;;3.03;;
77705;SDS011;66874;45.274;5.880;2023-05-07T12:20:44;4.30;;;1.90;;
77705;SDS011;66874;45.274;5.880;2023-05-07T12:23:10;4.78;;;2.10;;
77705;SDS011;66874;45.274;5.880;2023-05-07T12:25:37;3.05;;;2.30;;
77705;SDS011;66874;45.274;5.880;2023-05-07T12:28:03;3.00;;;2.30;;
77705;SDS011;66874;45.274;5.880;2023-05-07T12:30:31;5.18;;;2.00;;
77705;SDS011;66874;45.274;5.880;2023-05-07T12:33:05;3.42;;;1.83;;
77705;SDS011;66874;45.274;5.880;2023-05-07T12:35:32;4.35;;;1.83;;
77705;SDS011;66874;45.274;5.880;2023-05-07T12:38:02;3.88;;;2.20;;
77705;SDS011;66874;45.274;5.880;2023-05-07T12:41:02;3.97;;;2.08;;
77705;SDS011;66874;45.274;5.880;2023-05-07T12:43:21;3.60;;;2.13;;
77705;SDS011;66874;45.274;5.880;2023-05-07T12:45:47;2.22;;;2.03;;
77705;SDS011;66874;45.274;5.880;2023-05-07T12:50:40;6.72;;;1.85;;
77705;SDS011;66874;45.274;5.880;2023-05-07T12:53:06;3.72;;;2.20;;
77705;SDS011;66874;45.274;5.880;2023-05-07T12:55:40;4.57;;;1.90;;
77705;SDS011;66874;45.274;5.880;2023-05-07T12:58:45;4.28;;;1.95;;
77705;SDS011;66874;45.274;5.880;2023-05-07T13:01:05;5.05;;;2.50;;
77705;SDS011;66874;45.274;5.880;2023-05-07T13:03:33;2.28;;;1.70;;
77705;SDS011;66874;45.274;5.880;2023-05-07T13:06:04;3.40;;;1.75;;
77705;SDS011;66874;45.274;5.880;2023-05-07T13:08:32;2.13;;;1.85;;
77705;SDS011;66874;45.274;5.880;2023-05-07T13:11:02;3.03;;;2.25;;
77705;SDS011;66874;45.274;5.880;2023-05-07T13:13:33;3.38;;;1.60;;
77705;SDS011;66874;45.274;5.880;2023-05-07T13:16:01;1.75;;;1.65;;
77705;SDS011;66874;45.274;5.880;2023-05-07T13:18:28;4.13;;;1.90;;
77705;SDS011;66874;45.274;5.880;2023-05-07T13:23:20;4.05;;;1.85;;
77705;SDS011;66874;45.274;5.880;2023-05-07T13:25:45;2.50;;;1.65;;
77705;SDS011;66874;45.274;5.880;2023-05-07T13:28:12;9.40;;;2.40;;
77705;SDS011;66874;45.274;5.880;2023-05-07T13:30:37;4.65;;;1.90;;
77705;SDS011;66874;45.274;5.880;2023-05-07T13:33:03;3.85;;;2.00;;
77705;SDS011;66874;45.274;5.880;2023-05-07T13:35:29;3.17;;;1.70;;
77705;SDS011;66874;45.274;5.880;2023-05-07T13:37:54;3.17;;;1.85;;
77705;SDS011;66874;45.274;5.880;2023-05-07T13:40:21;2.88;;;1.63;;
77705;SDS011;66874;45.274;5.880;2023-05-07T13:42:47;5.53;;;1.90;;
77705;SDS011;66874;45.274;5.880;2023-05-07T13:45:13;2.38;;;1.80;;
77705;SDS011;66874;45.274;5.880;2023-05-07T13:47:40;3.13;;;2.20;;
77705;SDS011;66874;45.274;5.880;2023-05-07T13:50:06;5.18;;;2.05;;
77705;SDS011;66874;45.274;5.880;2023-05-07T13:52:33;3.35;;;1.73;;
77705;SDS011;66874;45.274;5.880;2023-05-07T13:54:58;4.22;;;1.90;;
77705;SDS011;66874;45.274;5.880;2023-05-07T13:57:24;3.25;;;1.92;;
77705;SDS011;66874;45.274;5.880;2023-05-07T13:59:49;3.05;;;2.20;;
77705;SDS011;66874;45.274;5.880;2023-05-07T14:02:15;2.95;;;1.92;;
77705;SDS011;66874;45.274;5.880;2023-05-07T14:04:40;2.60;;;1.60;;
77705;SDS011;66874;45.274;5.880;2023-05-07T14:07:06;2.65;;;2.10;;
77705;SDS011;66874;45.274;5.880;2023-05-07T14:09:31;3.40;;;1.95;;
77705;SDS011;66874;45.274;5.880;2023-05-07T14:11:57;5.75;;;2.08;;
77705;SDS011;66874;45.274;5.880;2023-05-07T14:14:23;4.23;;;2.17;;
77705;SDS011;66874;45.274;5.880;2023-05-07T14:16:49;4.28;;;2.70;;
77705;SDS011;66874;45.274;5.880;2023-05-07T14:19:14;3.65;;;2.00;;
77705;SDS011;66874;45.274;5.880;2023-05-07T14:21:40;5.75;;;2.03;;
77705;SDS011;66874;45.274;5.880;2023-05-07T14:24:06;2.38;;;1.70;;
77705;SDS011;66874;45.274;5.880;2023-05-07T14:26:33;2.10;;;1.55;;
77705;SDS011;66874;45.274;5.880;2023-05-07T14:28:58;3.47;;;2.75;;
77705;SDS011;66874;45.274;5.880;2023-05-07T14:31:24;6.00;;;3.05;;
77705;SDS011;66874;45.274;5.880;2023-05-07T14:33:50;5.10;;;3.00;;
77705;SDS011;66874;45.274;5.880;2023-05-07T14:36:16;4.63;;;3.38;;
77705;SDS011;66874;45.274;5.880;2023-05-07T14:38:42;3.90;;;3.20;;
77705;SDS011;66874;45.274;5.880;2023-05-07T14:41:08;8.00;;;3.33;;
77705;SDS011;66874;45.274;5.880;2023-05-07T14:43:33;5.55;;;3.35;;
77705;SDS011;66874;45.274;5.880;2023-05-07T14:45:58;6.88;;;4.80;;
77705;SDS011;66874;45.274;5.880;2023-05-07T14:48:24;10.63;;;6.57;;
77705;SDS011;66874;45.274;5.880;2023-05-07T14:50:49;7.80;;;4.55;;
77705;SDS011;66874;45.274;5.880;2023-05-07T14:53:15;9.70;;;6.03;;
77705;SDS011;66874;45.274;5.880;2023-05-07T14:55:40;12.07;;;6.97;;
77705;SDS011;66874;45.274;5.880;2023-05-07T14:58:06;26.30;;;16.30;;
77705;SDS011;66874;45.274;5.880;2023-05-07T15:00:32;11.98;;;8.57;;
77705;SDS011;66874;45.274;5.880;2023-05-07T15:03:05;10.82;;;5.78;;
77705;SDS011;66874;45.274;5.880;2023-05-07T15:05:32;8.35;;;6.15;;
77705;SDS011;66874;45.274;5.880;2023-05-07T15:07:57;8.63;;;4.53;;
77705;SDS011;66874;45.274;5.880;2023-05-07T15:10:23;6.53;;;4.88;;
77705;SDS011;66874;45.274;5.880;2023-05-07T15:12:48;8.85;;;5.78;;
77705;SDS011;66874;45.274;5.880;2023-05-07T15:15:14;7.90;;;4.65;;